sensor_id;sensor_type;location;lat;lon;timestamp;P1;durP1;ratioP1;P2;durP2;ratioP2
42754;SDS011;28407;51.830;5.684;2024-01-27T00:00:08;7.95;;;5.07;;
42754;SDS011;28407;51.830;5.684;2024-01-27T00:02:12;5.45;;;3.78;;
42754;SDS011;28407;51.830;5.684;2024-01-27T00:04:16;6.22;;;3.65;;
42754;SDS011;28407;51.830;5.684;2024-01-27T00:06:17;8.38;;;4.13;;
42754;SDS011;28407;51.830;5.684;2024-01-27T00:08:20;4.63;;;3.63;;
42754;SDS011;28407;51.830;5.684;2024-01-27T00:10:21;5.97;;;4.07;;
42754;SDS011;28407;51.830;5.684;2024-01-27T00:12:22;5.22;;;3.50;;
42754;SDS011;28407;51.830;5.684;2024-01-27T00:14:27;6.28;;;3.30;;
42754;SDS011;28407;51.830;5.684;2024-01-27T00:16:30;6.55;;;4.00;;
42754;SDS011;28407;51.830;5.684;2024-01-27T00:18:31;7.93;;;4.38;;
42754;SDS011;28407;51.830;5.684;2024-01-27T00:20:32;7.95;;;3.67;;
42754;SDS011;28407;51.830;5.684;2024-01-27T00:22:33;4.63;;;4.13;;
42754;SDS011;28407;51.830;5.684;2024-01-27T00:24:33;5.97;;;4.10;;
42754;SDS011;28407;51.830;5.684;2024-01-27T00:26:37;7.75;;;3.50;;
42754;SDS011;28407;51.830;5.684;2024-01-27T00:28:37;6.18;;;3.42;;
42754;SDS011;28407;51.830;5.684;2024-01-27T00:30:41;4.95;;;3.90;;
42754;SDS011;28407;51.830;5.684;2024-01-27T00:32:42;3.92;;;3.20;;
42754;SDS011;28407;51.830;5.684;2024-01-27T00:34:42;7.20;;;3.63;;
42754;SDS011;28407;51.830;5.684;2024-01-27T00:36:43;7.55;;;4.35;;
42754;SDS011;28407;51.830;5.684;2024-01-27T00:38:51;4.93;;;3.72;;
42754;SDS011;28407;51.830;5.684;2024-01-27T00:40:52;5.82;;;3.40;;
42754;SDS011;28407;51.830;5.684;2024-01-27T00:42:53;5.50;;;4.53;;
42754;SDS011;28407;51.830;5.684;2024-01-27T00:44:54;9.03;;;3.73;;
42754;SDS011;28407;51.830;5.684;2024-01-27T00:46:55;4.43;;;3.78;;
42754;SDS011;28407;51.830;5.684;2024-01-27T00:48:56;5.50;;;3.47;;
42754;SDS011;28407;51.830;5.684;2024-01-27T00:50:56;6.60;;;4.60;;
42754;SDS011;28407;51.830;5.684;2024-01-27T00:52:57;4.90;;;3.72;;
42754;SDS011;28407;51.830;5.684;2024-01-27T00:54:58;6.13;;;3.42;;
42754;SDS011;28407;51.830;5.684;2024-01-27T00:57:02;7.55;;;3.97;;
42754;SDS011;28407;51.830;5.684;2024-01-27T00:59:03;7.05;;;5.38;;
42754;SDS011;28407;51.830;5.684;2024-01-27T01:01:09;5.00;;;3.38;;
42754;SDS011;28407;51.830;5.684;2024-01-27T01:03:12;7.07;;;3.63;;
42754;SDS011;28407;51.830;5.684;2024-01-27T01:05:13;8.23;;;3.90;;
42754;SDS011;28407;51.830;5.684;2024-01-27T01:07:14;4.80;;;3.75;;
42754;SDS011;28407;51.830;5.684;2024-01-27T01:09:15;5.63;;;3.38;;
42754;SDS011;28407;51.830;5.684;2024-01-27T01:11:15;4.38;;;3.50;;
42754;SDS011;28407;51.830;5.684;2024-01-27T01:13:19;6.43;;;3.33;;
42754;SDS011;28407;51.830;5.684;2024-01-27T01:15:20;6.57;;;3.53;;
42754;SDS011;28407;51.830;5.684;2024-01-27T01:17:21;4.43;;;3.65;;
42754;SDS011;28407;51.830;5.684;2024-01-27T01:19:22;5.03;;;3.65;;
42754;SDS011;28407;51.830;5.684;2024-01-27T01:21:23;8.63;;;4.28;;
42754;SDS011;28407;51.830;5.684;2024-01-27T01:23:24;6.38;;;3.88;;
42754;SDS011;28407;51.830;5.684;2024-01-27T01:25:25;6.53;;;4.28;;
42754;SDS011;28407;51.830;5.684;2024-01-27T01:27:25;5.32;;;3.97;;
42754;SDS011;28407;51.830;5.684;2024-01-27T01:29:26;5.80;;;3.78;;
42754;SDS011;28407;51.830;5.684;2024-01-27T01:31:30;6.03;;;3.47;;
42754;SDS011;28407;51.830;5.684;2024-01-27T01:33:31;4.28;;;3.70;;
42754;SDS011;28407;51.830;5.684;2024-01-27T01:35:31;4.95;;;3.30;;
42754;SDS011;28407;51.830;5.684;2024-01-27T01:37:32;9.20;;;3.75;;
42754;SDS011;28407;51.830;5.684;2024-01-27T01:39:36;6.25;;;3.67;;
42754;SDS011;28407;51.830;5.684;2024-01-27T01:41:37;6.03;;;3.53;;
42754;SDS011;28407;51.830;5.684;2024-01-27T01:43:37;5.13;;;3.40;;
42754;SDS011;28407;51.830;5.684;2024-01-27T01:45:38;4.30;;;3.70;;
42754;SDS011;28407;51.830;5.684;2024-01-27T01:47:39;4.53;;;3.72;;
42754;SDS011;28407;51.830;5.684;2024-01-27T01:49:40;6.45;;;3.33;;
42754;SDS011;28407;51.830;5.684;2024-01-27T01:51:41;4.35;;;3.72;;
42754;SDS011;28407;51.830;5.684;2024-01-27T01:53:43;6.15;;;3.35;;
42754;SDS011;28407;51.830;5.684;2024-01-27T01:55:45;7.55;;;3.92;;
42754;SDS011;28407;51.830;5.684;2024-01-27T01:57:50;3.88;;;3.47;;
42754;SDS011;28407;51.830;5.684;2024-01-27T01:59:51;5.60;;;3.67;;
42754;SDS011;28407;51.830;5.684;2024-01-27T02:01:53;6.28;;;3.90;;
42754;SDS011;28407;51.830;5.684;2024-01-27T02:03:53;4.20;;;3.60;;
42754;SDS011;28407;51.830;5.684;2024-01-27T02:05:56;7.80;;;4.22;;
42754;SDS011;28407;51.830;5.684;2024-01-27T02:07:57;8.00;;;4.05;;
42754;SDS011;28407;51.830;5.684;2024-01-27T02:10:00;6.05;;;4.15;;
42754;SDS011;28407;51.830;5.684;2024-01-27T02:12:01;6.00;;;3.60;;
42754;SDS011;28407;51.830;5.684;2024-01-27T02:14:02;7.07;;;4.77;;
42754;SDS011;28407;51.830;5.684;2024-01-27T02:16:03;8.00;;;3.83;;
42754;SDS011;28407;51.830;5.684;2024-01-27T02:18:04;6.10;;;4.30;;
42754;SDS011;28407;51.830;5.684;2024-01-27T02:20:08;5.75;;;3.72;;
42754;SDS011;28407;51.830;5.684;2024-01-27T02:22:14;5.93;;;3.75;;
42754;SDS011;28407;51.830;5.684;2024-01-27T02:24:17;6.18;;;3.97;;
42754;SDS011;28407;51.830;5.684;2024-01-27T02:26:18;4.17;;;3.00;;
42754;SDS011;28407;51.830;5.684;2024-01-27T02:28:19;6.32;;;4.32;;
42754;SDS011;28407;51.830;5.684;2024-01-27T02:30:20;6.43;;;4.10;;
42754;SDS011;28407;51.830;5.684;2024-01-27T02:32:20;6.65;;;4.95;;
42754;SDS011;28407;51.830;5.684;2024-01-27T02:34:21;4.82;;;3.97;;
42754;SDS011;28407;51.830;5.684;2024-01-27T02:36:22;5.10;;;3.90;;
42754;SDS011;28407;51.830;5.684;2024-01-27T02:38:22;3.72;;;3.15;;
42754;SDS011;28407;51.830;5.684;2024-01-27T02:40:23;6.60;;;4.25;;
42754;SDS011;28407;51.830;5.684;2024-01-27T02:42:24;6.30;;;4.10;;
42754;SDS011;28407;51.830;5.684;2024-01-27T02:44:25;6.43;;;3.78;;
42754;SDS011;28407;51.830;5.684;2024-01-27T02:46:26;11.10;;;4.18;;
42754;SDS011;28407;51.830;5.684;2024-01-27T02:48:26;4.30;;;3.90;;
42754;SDS011;28407;51.830;5.684;2024-01-27T02:50:30;5.70;;;5.10;;
42754;SDS011;28407;51.830;5.684;2024-01-27T02:52:30;5.30;;;4.32;;
42754;SDS011;28407;51.830;5.684;2024-01-27T02:54:31;5.38;;;4.15;;
42754;SDS011;28407;51.830;5.684;2024-01-27T02:56:32;8.20;;;4.65;;
42754;SDS011;28407;51.830;5.684;2024-01-27T02:58:32;5.82;;;4.10;;
42754;SDS011;28407;51.830;5.684;2024-01-27T03:00:33;7.68;;;4.88;;
42754;SDS011;28407;51.830;5.684;2024-01-27T03:02:34;6.63;;;4.68;;
42754;SDS011;28407;51.830;5.684;2024-01-27T03:04:35;6.18;;;4.70;;
42754;SDS011;28407;51.830;5.684;2024-01-27T03:06:35;9.82;;;5.38;;
42754;SDS011;28407;51.830;5.684;2024-01-27T03:08:36;7.38;;;4.70;;
42754;SDS011;28407;51.830;5.684;2024-01-27T03:10:37;6.20;;;4.35;;
42754;SDS011;28407;51.830;5.684;2024-01-27T03:12:40;5.65;;;4.43;;
42754;SDS011;28407;51.830;5.684;2024-01-27T03:14:41;7.68;;;4.85;;
42754;SDS011;28407;51.830;5.684;2024-01-27T03:16:43;7.63;;;5.15;;
42754;SDS011;28407;51.830;5.684;2024-01-27T03:18:46;4.90;;;3.97;;
42754;SDS011;28407;51.830;5.684;2024-01-27T03:20:47;5.95;;;4.60;;
42754;SDS011;28407;51.830;5.684;2024-01-27T03:22:48;6.35;;;5.05;;
42754;SDS011;28407;51.830;5.684;2024-01-27T03:24:48;5.78;;;4.65;;
42754;SDS011;28407;51.830;5.684;2024-01-27T03:26:51;4.90;;;4.40;;
42754;SDS011;28407;51.830;5.684;2024-01-27T03:28:52;6.85;;;4.40;;
42754;SDS011;28407;51.830;5.684;2024-01-27T03:30:53;5.65;;;4.75;;
42754;SDS011;28407;51.830;5.684;2024-01-27T03:32:54;5.85;;;4.32;;
42754;SDS011;28407;51.830;5.684;2024-01-27T03:34:55;6.38;;;4.55;;
42754;SDS011;28407;51.830;5.684;2024-01-27T03:36:55;5.35;;;4.63;;
42754;SDS011;28407;51.830;5.684;2024-01-27T03:38:57;7.07;;;5.13;;
42754;SDS011;28407;51.830;5.684;2024-01-27T03:40:58;4.88;;;4.38;;
42754;SDS011;28407;51.830;5.684;2024-01-27T03:43:01;5.90;;;4.85;;
42754;SDS011;28407;51.830;5.684;2024-01-27T03:45:02;7.90;;;5.32;;
42754;SDS011;28407;51.830;5.684;2024-01-27T03:47:03;16.10;;;5.95;;
42754;SDS011;28407;51.830;5.684;2024-01-27T03:49:04;6.68;;;5.13;;
42754;SDS011;28407;51.830;5.684;2024-01-27T03:51:05;7.40;;;4.53;;
42754;SDS011;28407;51.830;5.684;2024-01-27T03:53:06;6.47;;;4.85;;
42754;SDS011;28407;51.830;5.684;2024-01-27T03:55:06;11.02;;;6.03;;
42754;SDS011;28407;51.830;5.684;2024-01-27T03:57:07;5.80;;;5.03;;
42754;SDS011;28407;51.830;5.684;2024-01-27T03:59:08;7.93;;;5.28;;
42754;SDS011;28407;51.830;5.684;2024-01-27T04:01:11;10.30;;;5.43;;
42754;SDS011;28407;51.830;5.684;2024-01-27T04:03:11;7.70;;;4.47;;
42754;SDS011;28407;51.830;5.684;2024-01-27T04:05:12;5.47;;;4.25;;
42754;SDS011;28407;51.830;5.684;2024-01-27T04:07:13;10.73;;;6.47;;
42754;SDS011;28407;51.830;5.684;2024-01-27T04:09:14;6.80;;;5.10;;
42754;SDS011;28407;51.830;5.684;2024-01-27T04:11:19;6.68;;;5.68;;
42754;SDS011;28407;51.830;5.684;2024-01-27T04:13:21;8.05;;;5.03;;
42754;SDS011;28407;51.830;5.684;2024-01-27T04:15:22;11.90;;;5.40;;
42754;SDS011;28407;51.830;5.684;2024-01-27T04:17:22;6.25;;;4.60;;
42754;SDS011;28407;51.830;5.684;2024-01-27T04:19:23;8.52;;;5.40;;
42754;SDS011;28407;51.830;5.684;2024-01-27T04:21:24;10.35;;;6.10;;
42754;SDS011;28407;51.830;5.684;2024-01-27T04:23:25;6.38;;;5.25;;
42754;SDS011;28407;51.830;5.684;2024-01-27T04:25:25;6.07;;;5.03;;
42754;SDS011;28407;51.830;5.684;2024-01-27T04:27:27;7.18;;;5.10;;
42754;SDS011;28407;51.830;5.684;2024-01-27T04:29:30;6.60;;;5.82;;
42754;SDS011;28407;51.830;5.684;2024-01-27T04:31:31;8.63;;;5.50;;
42754;SDS011;28407;51.830;5.684;2024-01-27T04:33:32;9.00;;;5.68;;
42754;SDS011;28407;51.830;5.684;2024-01-27T04:35:35;9.10;;;5.18;;
42754;SDS011;28407;51.830;5.684;2024-01-27T04:37:36;7.07;;;5.03;;
42754;SDS011;28407;51.830;5.684;2024-01-27T04:39:37;5.73;;;4.90;;
42754;SDS011;28407;51.830;5.684;2024-01-27T04:41:41;9.57;;;4.97;;
42754;SDS011;28407;51.830;5.684;2024-01-27T04:43:43;4.78;;;4.20;;
42754;SDS011;28407;51.830;5.684;2024-01-27T04:45:44;5.28;;;4.78;;
42754;SDS011;28407;51.830;5.684;2024-01-27T04:47:45;9.05;;;5.63;;
42754;SDS011;28407;51.830;5.684;2024-01-27T04:49:45;7.15;;;4.95;;
42754;SDS011;28407;51.830;5.684;2024-01-27T04:51:46;6.95;;;5.10;;
42754;SDS011;28407;51.830;5.684;2024-01-27T04:53:47;12.00;;;6.88;;
42754;SDS011;28407;51.830;5.684;2024-01-27T04:55:47;6.88;;;5.32;;
42754;SDS011;28407;51.830;5.684;2024-01-27T04:57:48;6.32;;;4.85;;
42754;SDS011;28407;51.830;5.684;2024-01-27T04:59:49;5.80;;;4.95;;
42754;SDS011;28407;51.830;5.684;2024-01-27T05:01:50;8.35;;;5.22;;
42754;SDS011;28407;51.830;5.684;2024-01-27T05:03:51;9.93;;;5.73;;
42754;SDS011;28407;51.830;5.684;2024-01-27T05:05:52;11.75;;;5.43;;
42754;SDS011;28407;51.830;5.684;2024-01-27T05:07:53;9.10;;;5.17;;
42754;SDS011;28407;51.830;5.684;2024-01-27T05:09:53;5.88;;;5.00;;
42754;SDS011;28407;51.830;5.684;2024-01-27T05:11:54;12.38;;;5.57;;
42754;SDS011;28407;51.830;5.684;2024-01-27T05:13:55;6.07;;;4.85;;
42754;SDS011;28407;51.830;5.684;2024-01-27T05:15:55;8.00;;;5.10;;
42754;SDS011;28407;51.830;5.684;2024-01-27T05:17:56;6.72;;;5.15;;
42754;SDS011;28407;51.830;5.684;2024-01-27T05:19:57;11.13;;;5.25;;
42754;SDS011;28407;51.830;5.684;2024-01-27T05:21:58;5.72;;;4.90;;
42754;SDS011;28407;51.830;5.684;2024-01-27T05:23:59;8.75;;;5.13;;
42754;SDS011;28407;51.830;5.684;2024-01-27T05:26:00;5.90;;;5.30;;
42754;SDS011;28407;51.830;5.684;2024-01-27T05:28:00;6.28;;;5.65;;
42754;SDS011;28407;51.830;5.684;2024-01-27T05:30:02;6.35;;;4.95;;
42754;SDS011;28407;51.830;5.684;2024-01-27T05:32:03;11.75;;;5.32;;
42754;SDS011;28407;51.830;5.684;2024-01-27T05:34:04;7.63;;;4.82;;
42754;SDS011;28407;51.830;5.684;2024-01-27T05:36:05;8.93;;;5.70;;
42754;SDS011;28407;51.830;5.684;2024-01-27T05:38:06;6.33;;;5.13;;
42754;SDS011;28407;51.830;5.684;2024-01-27T05:40:07;9.90;;;7.18;;
42754;SDS011;28407;51.830;5.684;2024-01-27T05:42:08;7.10;;;5.22;;
42754;SDS011;28407;51.830;5.684;2024-01-27T05:44:09;6.68;;;5.38;;
42754;SDS011;28407;51.830;5.684;2024-01-27T05:46:09;8.05;;;5.53;;
42754;SDS011;28407;51.830;5.684;2024-01-27T05:48:10;5.65;;;5.10;;
42754;SDS011;28407;51.830;5.684;2024-01-27T05:50:15;9.48;;;5.95;;
42754;SDS011;28407;51.830;5.684;2024-01-27T05:52:15;12.52;;;6.63;;
42754;SDS011;28407;51.830;5.684;2024-01-27T05:54:16;6.68;;;5.65;;
42754;SDS011;28407;51.830;5.684;2024-01-27T05:56:17;7.53;;;5.70;;
42754;SDS011;28407;51.830;5.684;2024-01-27T05:58:26;7.32;;;5.10;;
42754;SDS011;28407;51.830;5.684;2024-01-27T06:00:27;8.48;;;5.35;;
42754;SDS011;28407;51.830;5.684;2024-01-27T06:02:28;9.85;;;7.25;;
42754;SDS011;28407;51.830;5.684;2024-01-27T06:04:28;11.80;;;6.15;;
42754;SDS011;28407;51.830;5.684;2024-01-27T06:06:39;6.38;;;4.32;;
42754;SDS011;28407;51.830;5.684;2024-01-27T06:08:40;6.90;;;5.45;;
42754;SDS011;28407;51.830;5.684;2024-01-27T06:10:41;9.15;;;5.97;;
42754;SDS011;28407;51.830;5.684;2024-01-27T06:12:42;9.13;;;5.60;;
42754;SDS011;28407;51.830;5.684;2024-01-27T06:14:45;11.00;;;6.15;;
42754;SDS011;28407;51.830;5.684;2024-01-27T06:16:52;8.27;;;5.40;;
42754;SDS011;28407;51.830;5.684;2024-01-27T06:18:53;10.32;;;5.90;;
42754;SDS011;28407;51.830;5.684;2024-01-27T06:20:54;12.27;;;6.13;;
42754;SDS011;28407;51.830;5.684;2024-01-27T06:22:55;8.55;;;5.70;;
42754;SDS011;28407;51.830;5.684;2024-01-27T06:24:56;5.63;;;5.03;;
42754;SDS011;28407;51.830;5.684;2024-01-27T06:26:56;7.40;;;6.70;;
42754;SDS011;28407;51.830;5.684;2024-01-27T06:28:57;5.57;;;4.93;;
42754;SDS011;28407;51.830;5.684;2024-01-27T06:30:58;6.03;;;4.95;;
42754;SDS011;28407;51.830;5.684;2024-01-27T06:32:59;7.78;;;5.60;;
42754;SDS011;28407;51.830;5.684;2024-01-27T06:34:59;6.88;;;5.97;;
42754;SDS011;28407;51.830;5.684;2024-01-27T06:37:03;7.38;;;5.63;;
42754;SDS011;28407;51.830;5.684;2024-01-27T06:39:05;8.98;;;7.13;;
42754;SDS011;28407;51.830;5.684;2024-01-27T06:41:14;10.18;;;4.88;;
42754;SDS011;28407;51.830;5.684;2024-01-27T06:43:17;7.10;;;6.38;;
42754;SDS011;28407;51.830;5.684;2024-01-27T06:45:18;5.25;;;4.75;;
42754;SDS011;28407;51.830;5.684;2024-01-27T06:47:19;6.55;;;5.40;;
42754;SDS011;28407;51.830;5.684;2024-01-27T06:49:20;8.63;;;6.65;;
42754;SDS011;28407;51.830;5.684;2024-01-27T06:51:21;7.35;;;5.22;;
42754;SDS011;28407;51.830;5.684;2024-01-27T06:53:22;7.85;;;5.90;;
42754;SDS011;28407;51.830;5.684;2024-01-27T06:55:22;9.40;;;6.05;;
42754;SDS011;28407;51.830;5.684;2024-01-27T06:57:23;10.25;;;5.45;;
42754;SDS011;28407;51.830;5.684;2024-01-27T06:59:24;6.60;;;5.88;;
42754;SDS011;28407;51.830;5.684;2024-01-27T07:01:28;7.15;;;5.45;;
42754;SDS011;28407;51.830;5.684;2024-01-27T07:03:28;7.78;;;5.63;;
42754;SDS011;28407;51.830;5.684;2024-01-27T07:05:29;8.82;;;5.88;;
42754;SDS011;28407;51.830;5.684;2024-01-27T07:07:32;6.72;;;5.13;;
42754;SDS011;28407;51.830;5.684;2024-01-27T07:09:33;6.05;;;5.45;;
42754;SDS011;28407;51.830;5.684;2024-01-27T07:11:36;7.43;;;5.95;;
42754;SDS011;28407;51.830;5.684;2024-01-27T07:13:41;9.88;;;5.47;;
42754;SDS011;28407;51.830;5.684;2024-01-27T07:15:42;6.97;;;5.78;;
42754;SDS011;28407;51.830;5.684;2024-01-27T07:17:42;9.55;;;5.90;;
42754;SDS011;28407;51.830;5.684;2024-01-27T07:19:43;8.25;;;5.57;;
42754;SDS011;28407;51.830;5.684;2024-01-27T07:21:44;7.38;;;6.55;;
42754;SDS011;28407;51.830;5.684;2024-01-27T07:23:47;8.05;;;6.15;;
42754;SDS011;28407;51.830;5.684;2024-01-27T07:25:48;6.40;;;5.75;;
42754;SDS011;28407;51.830;5.684;2024-01-27T07:27:49;5.05;;;4.60;;
42754;SDS011;28407;51.830;5.684;2024-01-27T07:29:50;6.75;;;5.82;;
42754;SDS011;28407;51.830;5.684;2024-01-27T07:31:50;9.05;;;5.63;;
42754;SDS011;28407;51.830;5.684;2024-01-27T07:33:51;7.90;;;5.35;;
42754;SDS011;28407;51.830;5.684;2024-01-27T07:35:52;6.10;;;5.60;;
42754;SDS011;28407;51.830;5.684;2024-01-27T07:37:53;7.30;;;5.25;;
42754;SDS011;28407;51.830;5.684;2024-01-27T07:39:54;7.22;;;5.90;;
42754;SDS011;28407;51.830;5.684;2024-01-27T07:41:54;6.65;;;6.00;;
42754;SDS011;28407;51.830;5.684;2024-01-27T07:43:55;10.20;;;5.45;;
42754;SDS011;28407;51.830;5.684;2024-01-27T07:45:56;9.82;;;5.63;;
42754;SDS011;28407;51.830;5.684;2024-01-27T07:47:57;8.52;;;5.88;;
42754;SDS011;28407;51.830;5.684;2024-01-27T07:49:58;9.60;;;7.40;;
42754;SDS011;28407;51.830;5.684;2024-01-27T07:51:58;8.77;;;6.18;;
42754;SDS011;28407;51.830;5.684;2024-01-27T07:53:59;5.70;;;5.03;;
42754;SDS011;28407;51.830;5.684;2024-01-27T07:56:04;8.80;;;5.97;;
42754;SDS011;28407;51.830;5.684;2024-01-27T07:58:05;11.17;;;4.57;;
42754;SDS011;28407;51.830;5.684;2024-01-27T08:00:06;7.40;;;6.05;;
42754;SDS011;28407;51.830;5.684;2024-01-27T08:02:07;6.28;;;4.50;;
42754;SDS011;28407;51.830;5.684;2024-01-27T08:04:08;8.23;;;5.53;;
42754;SDS011;28407;51.830;5.684;2024-01-27T08:06:18;10.07;;;6.10;;
42754;SDS011;28407;51.830;5.684;2024-01-27T08:08:27;9.38;;;5.93;;
42754;SDS011;28407;51.830;5.684;2024-01-27T08:10:28;6.85;;;5.22;;
42754;SDS011;28407;51.830;5.684;2024-01-27T08:12:29;6.35;;;5.63;;
42754;SDS011;28407;51.830;5.684;2024-01-27T08:14:29;7.53;;;5.25;;
42754;SDS011;28407;51.830;5.684;2024-01-27T08:16:30;6.65;;;4.93;;
42754;SDS011;28407;51.830;5.684;2024-01-27T08:18:31;7.20;;;4.82;;
42754;SDS011;28407;51.830;5.684;2024-01-27T08:20:34;6.50;;;5.30;;
42754;SDS011;28407;51.830;5.684;2024-01-27T08:22:35;5.95;;;5.22;;
42754;SDS011;28407;51.830;5.684;2024-01-27T08:24:36;8.60;;;6.28;;
42754;SDS011;28407;51.830;5.684;2024-01-27T08:26:36;10.07;;;5.93;;
42754;SDS011;28407;51.830;5.684;2024-01-27T08:28:37;6.18;;;5.60;;
42754;SDS011;28407;51.830;5.684;2024-01-27T08:30:38;8.10;;;6.35;;
42754;SDS011;28407;51.830;5.684;2024-01-27T08:32:39;7.63;;;5.28;;
42754;SDS011;28407;51.830;5.684;2024-01-27T08:34:40;7.68;;;6.85;;
42754;SDS011;28407;51.830;5.684;2024-01-27T08:36:43;8.18;;;5.32;;
42754;SDS011;28407;51.830;5.684;2024-01-27T08:38:46;6.78;;;5.63;;
42754;SDS011;28407;51.830;5.684;2024-01-27T08:40:47;7.55;;;5.75;;
42754;SDS011;28407;51.830;5.684;2024-01-27T08:42:48;6.22;;;5.20;;
42754;SDS011;28407;51.830;5.684;2024-01-27T08:44:51;8.57;;;6.18;;
42754;SDS011;28407;51.830;5.684;2024-01-27T08:46:52;6.30;;;5.22;;
42754;SDS011;28407;51.830;5.684;2024-01-27T08:48:53;6.55;;;5.57;;
42754;SDS011;28407;51.830;5.684;2024-01-27T08:50:54;5.68;;;4.88;;
42754;SDS011;28407;51.830;5.684;2024-01-27T08:52:55;8.13;;;5.25;;
42754;SDS011;28407;51.830;5.684;2024-01-27T08:54:58;6.40;;;5.75;;
42754;SDS011;28407;51.830;5.684;2024-01-27T08:57:02;7.63;;;5.40;;
42754;SDS011;28407;51.830;5.684;2024-01-27T08:59:03;8.65;;;6.10;;
42754;SDS011;28407;51.830;5.684;2024-01-27T09:01:04;9.00;;;5.97;;
42754;SDS011;28407;51.830;5.684;2024-01-27T09:03:07;8.57;;;5.50;;
42754;SDS011;28407;51.830;5.684;2024-01-27T09:05:08;9.55;;;6.00;;
42754;SDS011;28407;51.830;5.684;2024-01-27T09:07:12;6.63;;;5.85;;
42754;SDS011;28407;51.830;5.684;2024-01-27T09:09:13;6.25;;;5.40;;
42754;SDS011;28407;51.830;5.684;2024-01-27T09:11:13;11.50;;;6.45;;
42754;SDS011;28407;51.830;5.684;2024-01-27T09:13:14;9.25;;;5.90;;
42754;SDS011;28407;51.830;5.684;2024-01-27T09:15:15;6.55;;;4.93;;
42754;SDS011;28407;51.830;5.684;2024-01-27T09:17:18;9.52;;;6.43;;
42754;SDS011;28407;51.830;5.684;2024-01-27T09:19:19;8.70;;;6.53;;
42754;SDS011;28407;51.830;5.684;2024-01-27T09:21:20;11.45;;;8.27;;
42754;SDS011;28407;51.830;5.684;2024-01-27T09:23:27;11.43;;;7.47;;
42754;SDS011;28407;51.830;5.684;2024-01-27T09:25:28;8.02;;;6.30;;
42754;SDS011;28407;51.830;5.684;2024-01-27T09:27:31;7.32;;;6.63;;
42754;SDS011;28407;51.830;5.684;2024-01-27T09:29:32;7.82;;;6.20;;
42754;SDS011;28407;51.830;5.684;2024-01-27T09:31:33;6.95;;;6.22;;
42754;SDS011;28407;51.830;5.684;2024-01-27T09:33:33;9.55;;;6.70;;
42754;SDS011;28407;51.830;5.684;2024-01-27T09:37:36;8.98;;;7.38;;
42754;SDS011;28407;51.830;5.684;2024-01-27T09:39:37;6.78;;;6.05;;
42754;SDS011;28407;51.830;5.684;2024-01-27T09:41:40;6.60;;;5.95;;
42754;SDS011;28407;51.830;5.684;2024-01-27T09:43:42;7.65;;;5.30;;
42754;SDS011;28407;51.830;5.684;2024-01-27T09:45:47;9.05;;;6.47;;
42754;SDS011;28407;51.830;5.684;2024-01-27T09:47:48;11.68;;;7.97;;
42754;SDS011;28407;51.830;5.684;2024-01-27T09:49:54;8.25;;;6.35;;
42754;SDS011;28407;51.830;5.684;2024-01-27T09:51:54;7.80;;;5.72;;
42754;SDS011;28407;51.830;5.684;2024-01-27T09:55:57;11.88;;;5.68;;
42754;SDS011;28407;51.830;5.684;2024-01-27T09:58:01;9.27;;;6.85;;
42754;SDS011;28407;51.830;5.684;2024-01-27T10:00:02;9.18;;;5.68;;
42754;SDS011;28407;51.830;5.684;2024-01-27T10:02:12;8.90;;;6.25;;
42754;SDS011;28407;51.830;5.684;2024-01-27T10:04:15;9.98;;;5.97;;
42754;SDS011;28407;51.830;5.684;2024-01-27T10:06:19;9.57;;;6.28;;
42754;SDS011;28407;51.830;5.684;2024-01-27T10:08:20;8.00;;;6.32;;
42754;SDS011;28407;51.830;5.684;2024-01-27T10:10:24;5.93;;;5.22;;
42754;SDS011;28407;51.830;5.684;2024-01-27T10:12:25;8.55;;;6.40;;
42754;SDS011;28407;51.830;5.684;2024-01-27T10:14:36;11.45;;;6.43;;
42754;SDS011;28407;51.830;5.684;2024-01-27T10:16:42;11.60;;;6.07;;
42754;SDS011;28407;51.830;5.684;2024-01-27T10:18:44;7.57;;;6.45;;
42754;SDS011;28407;51.830;5.684;2024-01-27T10:20:44;7.97;;;5.40;;
42754;SDS011;28407;51.830;5.684;2024-01-27T10:22:47;12.00;;;6.95;;
42754;SDS011;28407;51.830;5.684;2024-01-27T10:24:48;8.02;;;5.45;;
42754;SDS011;28407;51.830;5.684;2024-01-27T10:26:49;9.77;;;6.00;;
42754;SDS011;28407;51.830;5.684;2024-01-27T10:28:54;9.20;;;5.95;;
42754;SDS011;28407;51.830;5.684;2024-01-27T10:31:07;12.45;;;5.82;;
42754;SDS011;28407;51.830;5.684;2024-01-27T10:33:11;6.57;;;5.35;;
42754;SDS011;28407;51.830;5.684;2024-01-27T10:35:15;8.43;;;6.00;;
42754;SDS011;28407;51.830;5.684;2024-01-27T10:37:16;7.28;;;5.70;;
42754;SDS011;28407;51.830;5.684;2024-01-27T10:39:25;8.20;;;5.75;;
42754;SDS011;28407;51.830;5.684;2024-01-27T10:41:25;7.93;;;5.57;;
42754;SDS011;28407;51.830;5.684;2024-01-27T10:47:44;7.35;;;5.43;;
42754;SDS011;28407;51.830;5.684;2024-01-27T10:49:48;7.78;;;5.43;;
42754;SDS011;28407;51.830;5.684;2024-01-27T10:51:55;10.77;;;6.57;;
42754;SDS011;28407;51.830;5.684;2024-01-27T10:54:01;6.63;;;4.50;;
42754;SDS011;28407;51.830;5.684;2024-01-27T10:56:04;7.43;;;5.78;;
42754;SDS011;28407;51.830;5.684;2024-01-27T10:58:10;9.70;;;5.85;;
42754;SDS011;28407;51.830;5.684;2024-01-27T11:02:15;7.43;;;4.90;;
42754;SDS011;28407;51.830;5.684;2024-01-27T11:04:17;8.77;;;5.03;;
42754;SDS011;28407;51.830;5.684;2024-01-27T11:06:21;5.35;;;4.85;;
42754;SDS011;28407;51.830;5.684;2024-01-27T11:08:25;7.13;;;5.78;;
42754;SDS011;28407;51.830;5.684;2024-01-27T11:10:31;6.63;;;4.85;;
42754;SDS011;28407;51.830;5.684;2024-01-27T11:12:35;6.65;;;4.63;;
42754;SDS011;28407;51.830;5.684;2024-01-27T11:14:36;6.05;;;5.28;;
42754;SDS011;28407;51.830;5.684;2024-01-27T11:16:37;9.15;;;5.45;;
42754;SDS011;28407;51.830;5.684;2024-01-27T11:18:47;6.20;;;5.15;;
42754;SDS011;28407;51.830;5.684;2024-01-27T11:20:51;7.05;;;5.60;;
42754;SDS011;28407;51.830;5.684;2024-01-27T11:23:07;6.25;;;4.88;;
42754;SDS011;28407;51.830;5.684;2024-01-27T11:27:17;8.13;;;5.28;;
42754;SDS011;28407;51.830;5.684;2024-01-27T11:29:18;6.38;;;5.57;;
42754;SDS011;28407;51.830;5.684;2024-01-27T11:31:20;7.57;;;6.25;;
42754;SDS011;28407;51.830;5.684;2024-01-27T11:33:24;7.57;;;5.35;;
42754;SDS011;28407;51.830;5.684;2024-01-27T11:35:25;6.75;;;4.78;;
42754;SDS011;28407;51.830;5.684;2024-01-27T11:37:29;9.37;;;4.93;;
42754;SDS011;28407;51.830;5.684;2024-01-27T11:39:31;7.50;;;4.70;;
42754;SDS011;28407;51.830;5.684;2024-01-27T11:41:31;7.30;;;5.13;;
42754;SDS011;28407;51.830;5.684;2024-01-27T11:43:33;6.18;;;4.47;;
42754;SDS011;28407;51.830;5.684;2024-01-27T11:45:34;6.97;;;4.57;;
42754;SDS011;28407;51.830;5.684;2024-01-27T11:47:35;4.93;;;3.78;;
42754;SDS011;28407;51.830;5.684;2024-01-27T11:49:36;6.82;;;4.35;;
42754;SDS011;28407;51.830;5.684;2024-01-27T11:51:37;5.68;;;4.63;;
42754;SDS011;28407;51.830;5.684;2024-01-27T11:53:38;7.82;;;5.75;;
42754;SDS011;28407;51.830;5.684;2024-01-27T11:55:39;9.82;;;5.55;;
42754;SDS011;28407;51.830;5.684;2024-01-27T11:57:39;7.30;;;5.25;;
42754;SDS011;28407;51.830;5.684;2024-01-27T11:59:43;8.05;;;4.85;;
42754;SDS011;28407;51.830;5.684;2024-01-27T12:01:44;7.60;;;4.22;;
42754;SDS011;28407;51.830;5.684;2024-01-27T12:03:45;8.40;;;3.88;;
42754;SDS011;28407;51.830;5.684;2024-01-27T12:05:46;9.05;;;4.50;;
42754;SDS011;28407;51.830;5.684;2024-01-27T12:07:46;4.80;;;4.25;;
42754;SDS011;28407;51.830;5.684;2024-01-27T12:09:50;5.38;;;4.00;;
42754;SDS011;28407;51.830;5.684;2024-01-27T12:11:51;5.32;;;4.35;;
42754;SDS011;28407;51.830;5.684;2024-01-27T12:13:52;6.78;;;4.07;;
42754;SDS011;28407;51.830;5.684;2024-01-27T12:15:53;8.25;;;3.97;;
42754;SDS011;28407;51.830;5.684;2024-01-27T12:17:55;5.57;;;4.03;;
42754;SDS011;28407;51.830;5.684;2024-01-27T12:19:55;7.63;;;3.78;;
42754;SDS011;28407;51.830;5.684;2024-01-27T12:21:56;5.45;;;4.45;;
42754;SDS011;28407;51.830;5.684;2024-01-27T12:24:00;5.03;;;3.88;;